Time;durP1;ratioP1;P1;durP2;ratioP2;P2;SDS_P1;SDS_P2;PMS_P1;PMS_P2;Temp;Humidity;BMP_temperature;BMP_pressure;BME280_temperature;BME280_humidity;BME280_pressure;Samples;Min_cycle;Max_cycle;Signal;HPM_P1;HPM_P2
2023/05/07 00:01:56;;;;;;;9.43;6.43;;;11.00;92.50;;;;;;5072720;28;20635;-55
2023/05/07 00:04:22;;;;;;;10.43;5.70;;;11.00;91.10;;;;;;5072441;28;20048;-57
2023/05/07 00:06:48;;;;;;;13.80;7.00;;;10.90;92.20;;;;;;5072767;28;20377;-56
2023/05/07 00:09:13;;;;;;;11.60;6.25;;;10.90;92.80;;;;;;5072749;28;20036;-56
2023/05/07 00:11:40;;;;;;;11.68;6.68;;;10.80;93.60;;;;;;5072218;28;20028;-59
2023/05/07 00:14:05;;;;;;;15.15;6.28;;;10.80;93.60;;;;;;5072916;28;20428;-58
2023/05/07 00:16:31;;;;;;;6.70;6.00;;;10.80;93.70;;;;;;5071081;28;20059;-57
2023/05/07 00:18:57;;;;;;;7.57;5.90;;;10.80;93.20;;;;;;5072589;28;20078;-58
2023/05/07 00:21:26;;;;;;;11.73;6.47;;;10.80;92.40;;;;;;5072021;28;20120;-58
2023/05/07 00:23:52;;;;;;;7.97;5.68;;;10.70;92.00;;;;;;5071228;28;20495;-56
2023/05/07 00:26:18;;;;;;;7.90;6.70;;;10.60;92.90;;;;;;5072301;28;20066;-58
2023/05/07 00:28:43;;;;;;;7.70;6.45;;;10.60;93.10;;;;;;5072465;28;20531;-54
2023/05/07 00:31:09;;;;;;;13.82;6.53;;;10.60;95.00;;;;;;5072412;28;20054;-56
2023/05/07 00:33:35;;;;;;;12.00;6.53;;;10.60;95.40;;;;;;5072090;28;20029;-58
2023/05/07 00:36:01;;;;;;;13.45;7.72;;;10.60;95.40;;;;;;5072064;28;20472;-54
2023/05/07 00:38:27;;;;;;;7.25;5.65;;;10.60;94.30;;;;;;5072018;28;20028;-57
2023/05/07 00:40:53;;;;;;;7.55;5.88;;;10.60;93.50;;;;;;5072011;28;20082;-57
2023/05/07 00:43:18;;;;;;;12.68;5.85;;;10.60;93.60;;;;;;5072135;28;20021;-55
2023/05/07 00:45:44;;;;;;;10.32;5.82;;;10.60;92.00;;;;;;5072080;28;20468;-58
2023/05/07 00:48:10;;;;;;;10.05;5.93;;;10.60;92.40;;;;;;5072254;28;20023;-56
2023/05/07 00:50:35;;;;;;;8.65;6.47;;;10.60;92.20;;;;;;5071884;28;20051;-58
2023/05/07 00:53:02;;;;;;;8.98;6.03;;;10.60;92.50;;;;;;5071998;28;20504;-57
2023/05/07 00:55:28;;;;;;;6.72;6.03;;;10.60;92.80;;;;;;5071606;28;20033;-57
2023/05/07 00:57:54;;;;;;;10.32;6.55;;;10.60;92.70;;;;;;5071826;28;20039;-57
2023/05/07 01:00:20;;;;;;;8.18;6.40;;;10.60;92.30;;;;;;5071910;28;20017;-56
2023/05/07 01:02:46;;;;;;;7.40;5.50;;;10.50;92.60;;;;;;5071671;28;20074;-57
2023/05/07 01:05:15;;;;;;;10.35;6.22;;;10.50;93.40;;;;;;5071530;28;20040;-58
2023/05/07 01:07:42;;;;;;;8.73;6.57;;;10.50;93.80;;;;;;5071787;28;20027;-55
2023/05/07 01:10:09;;;;;;;11.50;6.60;;;10.50;94.60;;;;;;5071685;28;20039;-57
2023/05/07 01:12:37;;;;;;;10.88;7.22;;;10.50;95.00;;;;;;5071558;28;20104;-57
2023/05/07 01:15:05;;;;;;;9.02;5.93;;;10.50;95.00;;;;;;5071714;28;20036;-56
2023/05/07 01:17:37;;;;;;;11.82;6.32;;;10.60;95.30;;;;;;5071336;28;20526;-56
2023/05/07 01:20:05;;;;;;;11.48;6.97;;;10.50;94.50;;;;;;5071573;28;20025;-57
2023/05/07 01:22:40;;;;;;;9.48;5.70;;;10.60;94.90;;;;;;5071506;28;20689;-57
2023/05/07 01:25:10;;;;;;;11.55;6.13;;;10.60;94.30;;;;;;5070269;28;20024;-57
2023/05/07 01:27:37;;;;;;;15.25;6.28;;;10.50;93.90;;;;;;5071314;28;20034;-58
2023/05/07 01:30:04;;;;;;;9.48;6.70;;;10.50;93.90;;;;;;5071490;28;20513;-58
2023/05/07 01:32:53;;;;;;;9.27;7.20;;;10.50;94.60;;;;;;5071358;28;20023;-56
2023/05/07 01:35:24;;;;;;;8.35;6.30;;;10.50;94.40;;;;;;5071385;28;20032;-58
2023/05/07 01:37:50;;;;;;;7.78;6.85;;;10.50;94.70;;;;;;5071393;28;20024;-58
2023/05/07 01:40:16;;;;;;;8.80;6.93;;;10.40;95.20;;;;;;5070993;28;20021;-58
2023/05/07 01:42:43;;;;;;;7.72;6.22;;;10.40;95.30;;;;;;5071226;28;20040;-57
2023/05/07 01:45:10;;;;;;;7.70;6.38;;;10.30;95.00;;;;;;5071410;28;20028;-58
2023/05/07 01:47:37;;;;;;;8.38;6.72;;;10.40;95.50;;;;;;5071153;28;20028;-58
2023/05/07 01:50:05;;;;;;;9.70;6.85;;;10.30;96.10;;;;;;5071390;28;20451;-57
2023/05/07 01:52:31;;;;;;;12.68;6.47;;;10.30;95.60;;;;;;5069848;28;20029;-56
2023/05/07 01:54:57;;;;;;;7.55;6.45;;;10.30;95.00;;;;;;5071171;28;20554;-56
2023/05/07 01:57:22;;;;;;;9.13;6.68;;;10.20;95.20;;;;;;5071368;28;20048;-58
2023/05/07 01:59:48;;;;;;;10.00;6.85;;;10.10;95.60;;;;;;5072406;28;20023;-55
2023/05/07 02:02:13;;;;;;;12.98;6.32;;;10.20;97.40;;;;;;5073436;28;20472;-55
2023/05/07 02:04:39;;;;;;;6.22;5.50;;;10.20;96.70;;;;;;5074896;28;20538;-56
2023/05/07 02:07:05;;;;;;;8.30;6.47;;;10.20;95.80;;;;;;5075042;28;20059;-56
2023/05/07 02:09:30;;;;;;;10.05;6.97;;;10.20;95.10;;;;;;5074783;28;20755;-56
2023/05/07 02:11:56;;;;;;;8.65;6.07;;;10.20;95.10;;;;;;5074929;28;20345;-57
2023/05/07 02:14:22;;;;;;;7.90;6.13;;;10.20;94.40;;;;;;5074850;28;20443;-58
2023/05/07 02:16:47;;;;;;;9.15;6.95;;;10.10;94.70;;;;;;5074718;28;20353;-53
2023/05/07 02:19:13;;;;;;;20.90;6.95;;;10.10;94.80;;;;;;5075128;28;20468;-57
2023/05/07 02:21:39;;;;;;;7.00;6.30;;;10.10;95.40;;;;;;5074552;28;20016;-57
2023/05/07 02:24:05;;;;;;;8.40;6.90;;;10.10;96.90;;;;;;5074898;28;20425;-57
2023/05/07 02:26:30;;;;;;;10.30;6.35;;;10.20;96.50;;;;;;5074695;28;20105;-53
2023/05/07 02:28:56;;;;;;;8.15;6.28;;;10.20;96.30;;;;;;5073151;28;20036;-55
2023/05/07 02:31:22;;;;;;;15.20;6.68;;;10.20;96.50;;;;;;5074539;28;20028;-58
2023/05/07 02:33:47;;;;;;;6.95;6.28;;;10.30;98.00;;;;;;5074459;28;20025;-58
2023/05/07 02:36:13;;;;;;;12.20;7.13;;;10.40;97.60;;;;;;5074520;28;20074;-57
2023/05/07 02:38:38;;;;;;;10.75;7.07;;;10.40;97.40;;;;;;5072989;28;20031;-57
2023/05/07 02:41:04;;;;;;;9.88;6.47;;;10.50;96.90;;;;;;5074442;28;20028;-55
2023/05/07 02:43:30;;;;;;;8.15;6.78;;;10.50;97.10;;;;;;5074202;28;20040;-57
2023/05/07 02:46:06;;;;;;;7.75;7.00;;;10.50;96.60;;;;;;5074630;28;20070;-58
2023/05/07 02:48:33;;;;;;;7.82;6.28;;;10.50;97.40;;;;;;5074288;28;20025;-56
2023/05/07 02:50:59;;;;;;;13.13;7.93;;;10.60;97.50;;;;;;5072950;28;20047;-54
2023/05/07 02:53:26;;;;;;;7.65;6.82;;;10.60;97.40;;;;;;5074097;28;20032;-54
2023/05/07 02:55:58;;;;;;;7.93;7.05;;;10.70;98.00;;;;;;5074276;28;20474;-58
2023/05/07 02:58:24;;;;;;;9.55;6.32;;;10.70;98.30;;;;;;5073837;28;20425;-59
2023/05/07 03:00:50;;;;;;;7.57;5.72;;;10.80;97.70;;;;;;5074041;28;20348;-58
2023/05/07 03:03:16;;;;;;;6.93;6.22;;;10.80;97.40;;;;;;5074130;28;20023;-58
2023/05/07 03:05:41;;;;;;;9.68;7.32;;;10.80;96.00;;;;;;5073894;28;20040;-58
2023/05/07 03:08:08;;;;;;;8.10;6.43;;;10.70;96.90;;;;;;5073947;28;20033;-56
2023/05/07 03:10:33;;;;;;;9.85;7.35;;;10.70;97.50;;;;;;5073488;28;20030;-58
2023/05/07 03:12:59;;;;;;;9.40;6.50;;;10.70;97.90;;;;;;5073379;28;20475;-56
2023/05/07 03:15:25;;;;;;;13.70;7.43;;;10.70;98.20;;;;;;5074059;28;20580;-54
2023/05/07 03:17:50;;;;;;;17.08;11.45;;;10.80;98.50;;;;;;5073909;28;20030;-56
2023/05/07 03:20:16;;;;;;;13.60;11.75;;;10.80;99.00;;;;;;5073269;28;20024;-57
2023/05/07 03:22:42;;;;;;;19.40;14.15;;;11.00;99.90;;;;;;5073663;28;20378;-58
2023/05/07 03:25:09;;;;;;;23.27;17.13;;;11.10;99.90;;;;;;5073682;28;20040;-56
2023/05/07 03:27:34;;;;;;;21.52;15.52;;;11.30;99.90;;;;;;5073497;28;20433;-53
2023/05/07 03:30:00;;;;;;;17.58;15.15;;;11.40;99.90;;;;;;5073503;28;20032;-57
2023/05/07 03:32:26;;;;;;;18.52;14.43;;;11.50;99.90;;;;;;5073430;28;20035;-56
2023/05/07 03:34:51;;;;;;;16.58;14.73;;;11.50;99.90;;;;;;5073460;28;20380;-56
2023/05/07 03:37:17;;;;;;;18.48;14.85;;;11.60;99.90;;;;;;5073384;28;20416;-57
2023/05/07 03:39:43;;;;;;;17.10;14.77;;;11.60;99.90;;;;;;5073240;28;20039;-56
2023/05/07 03:42:09;;;;;;;16.40;13.35;;;11.60;99.90;;;;;;5073319;28;20459;-57
2023/05/07 03:44:36;;;;;;;18.15;14.75;;;11.60;99.90;;;;;;5073109;28;20427;-56
2023/05/07 03:47:02;;;;;;;17.70;14.63;;;11.60;99.90;;;;;;5073135;28;20025;-57
2023/05/07 03:49:27;;;;;;;16.15;14.05;;;11.70;99.90;;;;;;5073086;28;20032;-58
2023/05/07 03:51:53;;;;;;;17.50;14.95;;;11.70;99.90;;;;;;5073200;28;20028;-58
2023/05/07 03:54:19;;;;;;;20.90;15.90;;;11.80;99.90;;;;;;5073163;28;20074;-57
2023/05/07 03:56:44;;;;;;;19.17;14.32;;;11.70;99.90;;;;;;5072797;28;20072;-54
2023/05/07 03:59:10;;;;;;;17.73;15.70;;;11.80;99.90;;;;;;5072816;28;20021;-54
2023/05/07 04:01:36;;;;;;;24.73;15.27;;;11.70;99.90;;;;;;5073166;28;20020;-53
2023/05/07 04:04:02;;;;;;;22.13;15.23;;;11.70;99.90;;;;;;5072725;28;20117;-57
2023/05/07 04:06:28;;;;;;;16.40;14.25;;;11.80;99.90;;;;;;5072686;28;20020;-56
2023/05/07 04:08:54;;;;;;;17.85;13.45;;;11.80;99.90;;;;;;5071508;28;20023;-58
2023/05/07 04:11:20;;;;;;;21.33;13.95;;;11.90;99.90;;;;;;5073001;28;20078;-58
2023/05/07 04:13:46;;;;;;;18.85;13.52;;;11.90;99.90;;;;;;5072405;28;20024;-55
2023/05/07 04:16:11;;;;;;;17.35;14.35;;;11.90;99.90;;;;;;5072727;28;20544;-56
2023/05/07 04:18:37;;;;;;;21.83;16.02;;;11.90;99.90;;;;;;5072337;28;20329;-58
2023/05/07 04:21:03;;;;;;;17.67;14.20;;;12.00;99.90;;;;;;5072683;28;20100;-54
2023/05/07 04:23:28;;;;;;;18.60;14.80;;;12.00;99.90;;;;;;5072013;28;20032;-53
2023/05/07 04:25:54;;;;;;;17.25;13.57;;;12.10;99.90;;;;;;5072388;28;20028;-54
2023/05/07 04:28:20;;;;;;;17.13;14.30;;;12.10;99.90;;;;;;5072349;28;20017;-56
2023/05/07 04:30:46;;;;;;;19.23;15.85;;;12.20;99.90;;;;;;5072192;28;20067;-55
2023/05/07 04:33:13;;;;;;;22.10;12.60;;;12.20;99.90;;;;;;5072228;28;20428;-52
2023/05/07 04:35:39;;;;;;;21.00;13.77;;;12.30;99.90;;;;;;5072216;28;20108;-56
2023/05/07 04:38:05;;;;;;;15.90;13.20;;;12.30;99.90;;;;;;5072259;28;20107;-52
2023/05/07 04:40:31;;;;;;;20.83;13.07;;;12.40;99.60;;;;;;5071985;28;20070;-55
2023/05/07 04:42:56;;;;;;;19.13;13.75;;;12.40;98.50;;;;;;5072024;28;20020;-54
2023/05/07 04:45:22;;;;;;;18.88;13.38;;;12.40;99.20;;;;;;5072340;28;20502;-56
2023/05/07 04:47:47;;;;;;;17.27;12.60;;;12.40;98.60;;;;;;5071851;28;20490;-54
2023/05/07 04:50:13;;;;;;;15.20;13.57;;;12.50;98.60;;;;;;5072106;28;20023;-54
2023/05/07 04:52:39;;;;;;;18.85;13.07;;;12.50;97.60;;;;;;5070630;28;20426;-55
2023/05/07 04:55:05;;;;;;;16.58;12.65;;;12.60;98.50;;;;;;5072026;28;20617;-52
2023/05/07 04:57:30;;;;;;;17.52;11.90;;;12.60;97.80;;;;;;5071641;28;20083;-52
2023/05/07 04:59:57;;;;;;;13.15;11.48;;;12.70;97.50;;;;;;5071947;28;20536;-51
2023/05/07 05:02:22;;;;;;;16.55;12.82;;;12.70;96.90;;;;;;5071761;28;20052;-54
2023/05/07 05:04:48;;;;;;;18.52;12.90;;;12.70;96.60;;;;;;5070245;28;20072;-51
2023/05/07 05:07:13;;;;;;;15.15;12.32;;;12.80;97.50;;;;;;5071836;28;20024;-54
2023/05/07 05:09:39;;;;;;;17.10;12.85;;;12.80;98.10;;;;;;5072011;28;20075;-56
2023/05/07 05:12:07;;;;;;;14.10;12.00;;;12.90;96.00;;;;;;5072202;28;20021;-48
2023/05/07 05:14:32;;;;;;;16.17;11.77;;;12.90;97.30;;;;;;5070279;28;20028;-53
2023/05/07 05:16:58;;;;;;;13.52;10.82;;;12.90;97.70;;;;;;5070260;28;20021;-50
2023/05/07 05:19:24;;;;;;;12.27;10.07;;;13.00;96.80;;;;;;5070339;28;20028;-54
2023/05/07 05:21:49;;;;;;;12.38;10.27;;;13.10;95.50;;;;;;5070509;28;20479;-55
2023/05/07 05:24:15;;;;;;;13.13;9.70;;;13.10;95.70;;;;;;5071060;28;20028;-52
2023/05/07 05:26:41;;;;;;;11.50;10.02;;;13.20;96.20;;;;;;5070898;28;20021;-54
2023/05/07 05:29:07;;;;;;;10.63;9.07;;;13.20;93.90;;;;;;5070607;28;20025;-53
2023/05/07 05:31:33;;;;;;;9.85;8.85;;;13.20;94.30;;;;;;5070228;28;20032;-55
2023/05/07 05:33:59;;;;;;;10.77;9.13;;;13.20;94.70;;;;;;5069869;28;20025;-51
2023/05/07 05:36:25;;;;;;;11.25;8.38;;;13.30;93.90;;;;;;5070773;28;20112;-55
2023/05/07 05:38:51;;;;;;;13.02;8.98;;;13.40;92.50;;;;;;5071336;28;20375;-56
2023/05/07 05:41:16;;;;;;;8.75;7.90;;;13.60;91.30;;;;;;5071253;28;20035;-55
2023/05/07 05:43:42;;;;;;;12.43;7.75;;;13.60;89.60;;;;;;5070097;28;20025;-54
2023/05/07 05:46:10;;;;;;;9.75;7.70;;;13.60;85.40;;;;;;5071327;28;20070;-55
2023/05/07 05:48:36;;;;;;;10.30;7.10;;;13.60;83.30;;;;;;5071339;28;20021;-56
2023/05/07 05:51:02;;;;;;;12.50;7.60;;;13.60;81.60;;;;;;5071331;28;20036;-55
2023/05/07 05:53:27;;;;;;;8.82;6.70;;;13.70;78.70;;;;;;5071052;28;20052;-54
2023/05/07 05:55:53;;;;;;;9.10;6.97;;;13.80;78.50;;;;;;5071162;28;20123;-55
2023/05/07 05:58:19;;;;;;;13.02;6.72;;;13.80;73.60;;;;;;5071369;28;20056;-56
2023/05/07 06:00:46;;;;;;;8.93;6.80;;;13.70;71.20;;;;;;5071088;28;20020;-56
2023/05/07 06:03:11;;;;;;;7.53;6.63;;;13.80;66.60;;;;;;5071149;28;20457;-57
2023/05/07 06:05:37;;;;;;;7.43;6.13;;;13.90;65.60;;;;;;5070912;28;20080;-56
2023/05/07 06:08:03;;;;;;;6.95;6.05;;;14.10;67.30;;;;;;5071292;28;20104;-56
2023/05/07 06:10:30;;;;;;;13.65;6.95;;;14.10;60.70;;;;;;5070845;28;20083;-54
2023/05/07 06:12:55;;;;;;;7.05;6.28;;;14.20;42.80;;;;;;5071021;28;20112;-56
2023/05/07 06:15:21;;;;;;;6.75;6.07;;;14.30;43.10;;;;;;5071060;28;20115;-56
2023/05/07 06:17:47;;;;;;;8.40;6.65;;;14.40;36.60;;;;;;5071023;28;20083;-54
2023/05/07 06:20:12;;;;;;;6.75;5.90;;;14.30;46.00;;;;;;5070937;28;20437;-56
2023/05/07 06:22:38;;;;;;;7.22;6.25;;;14.40;41.10;;;;;;5070803;28;20021;-55
2023/05/07 06:25:04;;;;;;;7.43;6.13;;;14.40;35.40;;;;;;5069554;28;20024;-57
2023/05/07 06:27:29;;;;;;;7.15;6.03;;;14.60;36.80;;;;;;5070877;28;20434;-57
2023/05/07 06:29:55;;;;;;;6.90;6.20;;;14.70;25.00;;;;;;5070983;28;20020;-54
2023/05/07 06:32:21;;;;;;;7.22;5.55;;;14.70;38.90;;;;;;5070890;28;20531;-56
2023/05/07 06:34:46;;;;;;;8.73;6.07;;;14.80;42.00;;;;;;5070811;28;20099;-56
2023/05/07 06:37:12;;;;;;;6.50;5.85;;;14.90;33.00;;;;;;5070798;28;20029;-56
2023/05/07 06:39:38;;;;;;;10.68;6.20;;;14.80;20.60;;;;;;5070633;28;20029;-54
2023/05/07 06:42:04;;;;;;;8.02;5.30;;;14.90;27.30;;;;;;5069548;28;20402;-56
2023/05/07 06:44:30;;;;;;;8.23;5.55;;;14.90;23.10;;;;;;5070813;28;20031;-55
2023/05/07 06:46:56;;;;;;;10.45;6.70;;;15.00;35.40;;;;;;5073620;28;20111;-55
2023/05/07 06:49:22;;;;;;;6.63;5.93;;;15.10;23.90;;;;;;5073765;28;20428;-55
2023/05/07 06:51:48;;;;;;;10.73;6.10;;;15.00;26.60;;;;;;5073759;28;20103;-52
2023/05/07 06:54:13;;;;;;;9.75;7.32;;;15.00;32.50;;;;;;5073691;28;20145;-55
2023/05/07 06:56:39;;;;;;;14.20;6.82;;;15.10;31.90;;;;;;5073833;28;20025;-56
2023/05/07 06:59:05;;;;;;;13.73;6.03;;;15.20;40.80;;;;;;5074373;28;20028;-52
2023/05/07 07:01:31;;;;;;;6.85;6.15;;;15.40;40.50;;;;;;5073740;28;20033;-57
2023/05/07 07:03:57;;;;;;;12.55;6.30;;;15.50;26.90;;;;;;5073866;28;20081;-57
2023/05/07 07:06:22;;;;;;;6.97;5.82;;;15.40;10.90;;;;;;5073986;28;20036;-57
2023/05/07 07:08:48;;;;;;;8.15;6.10;;;15.60;36.20;;;;;;5073119;28;20036;-57
2023/05/07 07:11:15;;;;;;;10.52;6.47;;;15.80;19.90;;;;;;5074819;28;20549;-57
2023/05/07 07:13:42;;;;;;;6.18;5.57;;;16.10;22.90;;;;;;5074732;28;20093;-56
2023/05/07 07:16:08;;;;;;;7.63;5.07;;;16.00;4.20;;;;;;5074342;28;20524;-57
2023/05/07 07:18:34;;;;;;;6.88;5.35;;;16.20;8.20;;;;;;5074433;28;20067;-57
2023/05/07 07:20:59;;;;;;;7.32;6.15;;;16.20;1.00;;;;;;5074178;28;20464;-57
2023/05/07 07:23:25;;;;;;;12.43;6.18;;;16.10;1.00;;;;;;5074260;28;20025;-58
2023/05/07 07:25:51;;;;;;;12.02;6.22;;;16.10;15.70;;;;;;5074095;28;20337;-58
2023/05/07 07:28:17;;;;;;;5.78;5.03;;;16.00;1.00;;;;;;5072826;28;20679;-58
2023/05/07 07:30:43;;;;;;;10.32;6.28;;;15.90;1.00;;;;;;5073406;28;20108;-57
2023/05/07 07:33:08;;;;;;;9.27;5.97;;;15.80;3.70;;;;;;5073729;28;20633;-58
2023/05/07 07:35:34;;;;;;;10.77;7.32;;;16.10;7.20;;;;;;5074002;28;20032;-58
2023/05/07 07:38:01;;;;;;;10.55;5.57;;;16.10;1.00;;;;;;5073730;28;20024;-56
2023/05/07 07:40:27;;;;;;;7.35;6.25;;;16.30;1.00;;;;;;5073379;28;20039;-58
2023/05/07 07:42:53;;;;;;;7.22;6.30;;;16.30;7.40;;;;;;5073574;28;20025;-58
2023/05/07 07:45:19;;;;;;;6.28;5.68;;;16.50;8.60;;;;;;5073166;28;20052;-57
2023/05/07 07:47:45;;;;;;;10.45;6.22;;;16.50;1.00;;;;;;5072967;28;20035;-58
2023/05/07 07:50:11;;;;;;;9.82;6.18;;;16.70;1.00;;;;;;5073042;28;20025;-58
2023/05/07 07:52:37;;;;;;;6.88;6.10;;;16.90;1.00;;;;;;5073193;28;20052;-59
2023/05/07 07:55:03;;;;;;;6.43;5.32;;;17.00;1.00;;;;;;5072865;28;20039;-59
2023/05/07 07:57:29;;;;;;;6.72;6.13;;;16.90;1.00;;;;;;5071992;28;20024;-59
2023/05/07 07:59:55;;;;;;;7.30;6.55;;;17.00;1.00;;;;;;5072667;28;20419;-60
2023/05/07 08:02:20;;;;;;;14.20;6.32;;;17.00;1.00;;;;;;5072826;28;20021;-57
2023/05/07 08:04:46;;;;;;;7.68;6.85;;;17.10;1.00;;;;;;5072494;28;20123;-59
2023/05/07 08:07:12;;;;;;;6.82;5.85;;;17.00;1.00;;;;;;5072542;28;20025;-56
2023/05/07 08:09:38;;;;;;;12.02;6.63;;;17.00;1.00;;;;;;5072340;28;20044;-57
2023/05/07 08:12:05;;;;;;;11.93;6.13;;;17.10;1.00;;;;;;5072664;28;20029;-56
2023/05/07 08:14:31;;;;;;;9.00;7.10;;;17.30;1.00;;;;;;5072237;28;20079;-59
2023/05/07 08:16:56;;;;;;;13.15;6.72;;;17.50;1.00;;;;;;5070731;28;20515;-59
2023/05/07 08:19:22;;;;;;;9.40;7.35;;;17.50;1.00;;;;;;5070753;28;20460;-60
2023/05/07 08:21:48;;;;;;;7.78;6.82;;;17.70;1.00;;;;;;5071481;28;20013;-58
2023/05/07 08:24:14;;;;;;;9.50;7.38;;;17.70;1.00;;;;;;5071474;28;20048;-59
2023/05/07 08:26:40;;;;;;;8.50;7.00;;;17.50;1.00;;;;;;5079872;28;20031;-57
2023/05/07 08:29:06;;;;;;;13.32;8.80;;;17.70;1.00;;;;;;5092606;28;20020;-59
2023/05/07 08:31:32;;;;;;;11.40;7.50;;;17.90;1.00;;;;;;5088191;28;20028;-59
2023/05/07 08:33:58;;;;;;;10.48;7.38;;;18.20;1.00;;;;;;5072141;28;20027;-57
2023/05/07 08:36:25;;;;;;;9.13;8.05;;;18.00;1.00;;;;;;5072019;28;20031;-57
2023/05/07 08:38:51;;;;;;;8.77;7.32;;;18.00;1.00;;;;;;5071500;28;20368;-58
2023/05/07 08:41:17;;;;;;;10.23;7.63;;;17.90;1.00;;;;;;5070907;28;20017;-56
2023/05/07 08:43:49;;;;;;;8.88;7.97;;;17.90;1.00;;;;;;5070673;28;20031;-57
2023/05/07 08:46:19;;;;;;;10.52;7.50;;;17.90;1.00;;;;;;5071113;28;20419;-59
2023/05/07 08:48:44;;;;;;;11.63;8.63;;;18.30;1.00;;;;;;5069763;28;20025;-59
2023/05/07 08:51:16;;;;;;;10.00;8.15;;;18.50;1.00;;;;;;5069815;28;20035;-58
2023/05/07 08:53:42;;;;;;;10.52;7.60;;;18.60;1.00;;;;;;5071023;28;20432;-58
2023/05/07 08:56:11;;;;;;;10.85;8.27;;;18.60;1.00;;;;;;5072059;28;20020;-59
2023/05/07 08:58:37;;;;;;;9.73;8.45;;;18.70;1.00;;;;;;5071526;28;20033;-58
2023/05/07 09:01:09;;;;;;;8.70;7.80;;;19.20;1.00;;;;;;5071612;28;20024;-56
2023/05/07 09:03:37;;;;;;;8.43;7.00;;;19.60;99.90;;;;;;5072104;28;20017;-58
2023/05/07 09:06:03;;;;;;;7.90;7.10;;;19.10;1.00;;;;;;5071822;28;20017;-59
2023/05/07 09:08:29;;;;;;;7.97;7.18;;;19.30;99.90;;;;;;5071215;28;20035;-58
2023/05/07 09:10:55;;;;;;;10.85;9.50;;;19.50;99.90;;;;;;5069665;28;20085;-58
2023/05/07 09:13:21;;;;;;;12.52;8.15;;;19.50;99.90;;;;;;5071702;28;20070;-56
2023/05/07 09:15:46;;;;;;;10.40;9.20;;;19.70;99.90;;;;;;5071531;28;20024;-58
2023/05/07 09:18:12;;;;;;;9.95;8.77;;;19.70;97.90;;;;;;5071711;28;20020;-58
2023/05/07 09:20:39;;;;;;;10.20;9.20;;;19.80;1.00;;;;;;5071489;28;20086;-59
2023/05/07 09:23:06;;;;;;;10.45;9.13;;;20.00;41.40;;;;;;5071463;28;20103;-59
2023/05/07 09:25:34;;;;;;;9.65;8.68;;;20.00;1.00;;;;;;5071365;28;20031;-59
2023/05/07 09:28:05;;;;;;;11.60;9.35;;;20.20;1.00;;;;;;5071551;28;20024;-59
2023/05/07 09:30:31;;;;;;;18.20;9.07;;;20.00;12.70;;;;;;5071536;28;20404;-59
2023/05/07 09:33:02;;;;;;;12.07;9.43;;;20.20;1.00;;;;;;5071453;28;20029;-59
2023/05/07 09:35:28;;;;;;;10.95;9.23;;;20.40;99.90;;;;;;5071386;28;20379;-59
2023/05/07 09:37:55;;;;;;;10.38;9.38;;;20.60;99.90;;;;;;5071489;28;20107;-59
2023/05/07 09:40:25;;;;;;;12.50;8.70;;;20.70;99.90;;;;;;5070612;28;20032;-59
2023/05/07 09:42:51;;;;;;;14.27;9.77;;;20.90;7.40;;;;;;5069691;28;20033;-59
2023/05/07 09:45:22;;;;;;;11.50;8.77;;;21.10;99.90;;;;;;5071366;28;20066;-58
2023/05/07 09:47:53;;;;;;;18.52;9.95;;;21.50;99.90;;;;;;5071218;28;20040;-58
2023/05/07 09:50:21;;;;;;;12.63;9.50;;;21.50;1.00;;;;;;5071225;28;20020;-59
2023/05/07 09:52:47;;;;;;;12.98;9.88;;;21.70;99.90;;;;;;5069449;28;20472;-60
2023/05/07 09:55:13;;;;;;;12.13;10.27;;;21.60;99.90;;;;;;5071160;28;20120;-55
2023/05/07 09:57:41;;;;;;;11.05;9.85;;;21.90;1.00;;;;;;5071082;28;20399;-59
2023/05/07 10:00:09;;;;;;;13.00;9.50;;;21.80;99.90;;;;;;5071161;28;20017;-60
2023/05/07 10:02:36;;;;;;;13.02;9.60;;;21.70;99.90;;;;;;5070633;28;20016;-59
2023/05/07 10:05:02;;;;;;;13.10;9.18;;;21.70;1.00;;;;;;5070981;28;20237;-59
2023/05/07 10:07:28;;;;;;;12.50;8.90;;;21.70;1.00;;;;;;5069992;28;20028;-56
2023/05/07 10:09:55;;;;;;;12.32;8.05;;;22.00;99.90;;;;;;5070568;28;20021;-59
2023/05/07 10:12:21;;;;;;;12.02;9.07;;;22.10;50.20;;;;;;5061334;28;20033;-60
2023/05/07 10:14:48;;;;;;;16.42;8.52;;;21.80;99.90;;;;;;5040444;28;20029;-59
2023/05/07 10:17:16;;;;;;;14.07;9.90;;;21.90;99.90;;;;;;5041583;28;20369;-59
2023/05/07 10:19:44;;;;;;;15.95;9.40;;;22.30;99.90;;;;;;5041516;28;20040;-59
2023/05/07 10:22:13;;;;;;;11.25;9.18;;;22.60;1.00;;;;;;5048553;28;20053;-57
2023/05/07 10:24:39;;;;;;;8.38;7.57;;;22.70;99.90;;;;;;5044591;28;20111;-57
2023/05/07 10:27:12;;;;;;;12.02;8.07;;;23.00;99.90;;;;;;5058383;28;20134;-57
2023/05/07 10:30:03;;;;;;;9.82;7.95;;;23.30;99.90;;;;;;5044499;28;20071;-57
2023/05/07 10:33:05;;;;;;;9.93;7.80;;;23.40;51.50;;;;;;5048351;28;20029;-58
2023/05/07 10:35:35;;;;;;;11.77;8.70;;;23.50;1.00;;;;;;5034536;28;20037;-58
2023/05/07 10:38:51;;;;;;;10.27;8.55;;;23.60;1.00;;;;;;5057918;28;20036;-58
2023/05/07 10:41:18;;;;;;;9.98;7.80;;;23.10;1.00;;;;;;5054972;28;20066;-57
2023/05/07 10:43:45;;;;;;;13.75;8.73;;;23.40;21.90;;;;;;5043476;28;20035;-57
2023/05/07 10:46:18;;;;;;;9.23;7.32;;;23.40;1.00;;;;;;5042795;28;20024;-60
2023/05/07 10:49:07;;;;;;;11.43;8.15;;;23.50;1.00;;;;;;5043161;28;20037;-57
2023/05/07 10:51:33;;;;;;;8.43;7.63;;;24.00;99.90;;;;;;5040728;28;20037;-58
2023/05/07 10:54:11;;;;;;;9.05;7.22;;;24.40;99.90;;;;;;5043843;28;20025;-57
2023/05/07 10:56:43;;;;;;;8.68;7.43;;;24.00;99.90;;;;;;5046310;28;20073;-58
2023/05/07 10:59:34;;;;;;;8.17;6.90;;;23.30;82.60;;;;;;5053261;28;20029;-57
2023/05/07 11:02:07;;;;;;;10.48;6.05;;;23.00;99.50;;;;;;5066979;28;20036;-57
2023/05/07 11:04:34;;;;;;;11.20;5.50;;;23.10;99.90;;;;;;5073563;28;20037;-57
2023/05/07 11:07:06;;;;;;;7.95;6.28;;;22.90;1.00;;;;;;5073766;28;20476;-58
2023/05/07 11:09:53;;;;;;;9.70;5.57;;;22.80;99.90;;;;;;5073289;28;20017;-56
2023/05/07 11:12:37;;;;;;;8.23;6.72;;;23.30;1.00;;;;;;5070754;28;20487;-57
2023/05/07 11:15:10;;;;;;;6.85;6.18;;;23.20;77.10;;;;;;5073825;28;20479;-58
2023/05/07 11:17:56;;;;;;;8.02;6.50;;;23.40;72.20;;;;;;5073399;28;20495;-58
2023/05/07 11:21:07;;;;;;;6.93;6.07;;;23.10;99.90;;;;;;5073450;28;20111;-58
2023/05/07 11:23:33;;;;;;;9.55;5.43;;;23.80;99.90;;;;;;5070713;28;20477;-57
2023/05/07 11:26:07;;;;;;;6.90;5.25;;;23.70;1.00;;;;;;5073070;28;20111;-58
2023/05/07 11:28:40;;;;;;;6.07;5.47;;;24.20;1.00;;;;;;5072520;28;20059;-58
2023/05/07 11:31:07;;;;;;;5.65;4.90;;;24.30;1.00;;;;;;5074390;28;20043;-58
2023/05/07 11:33:34;;;;;;;6.22;4.22;;;24.30;99.90;;;;;;5071846;28;20028;-58
2023/05/07 11:36:02;;;;;;;8.40;5.07;;;24.30;1.00;;;;;;5074310;28;20024;-57
2023/05/07 11:38:29;;;;;;;4.03;3.33;;;24.30;99.90;;;;;;5073675;28;20021;-58
2023/05/07 11:41:00;;;;;;;5.95;4.10;;;24.70;99.90;;;;;;5072324;28;20024;-58
2023/05/07 11:43:26;;;;;;;5.63;4.53;;;24.80;99.90;;;;;;5073435;28;20021;-68
2023/05/07 11:45:52;;;;;;;6.95;4.28;;;24.90;99.90;;;;;;5073505;28;20494;-58
2023/05/07 11:48:18;;;;;;;5.53;3.65;;;25.00;99.90;;;;;;5073568;28;20037;-57
2023/05/07 11:51:00;;;;;;;6.18;4.13;;;25.10;1.00;;;;;;5072899;28;20115;-57
2023/05/07 11:53:28;;;;;;;5.00;3.63;;;25.30;3.70;;;;;;5072692;28;20041;-58
2023/05/07 11:55:56;;;;;;;8.20;3.92;;;26.30;15.70;;;;;;5072350;28;20035;-58
2023/05/07 11:58:23;;;;;;;5.20;3.70;;;26.70;1.00;;;;;;5073191;28;20024;-58
2023/05/07 12:00:55;;;;;;;4.32;3.40;;;27.10;1.00;;;;;;5072252;28;20456;-57
2023/05/07 12:03:21;;;;;;;5.72;3.03;;;27.40;1.00;;;;;;5071960;28;20036;-58
2023/05/07 12:05:47;;;;;;;4.93;2.88;;;28.30;1.00;;;;;;5070948;28;20032;-58
2023/05/07 12:08:17;;;;;;;5.78;3.60;;;28.60;99.90;;;;;;5072074;28;20028;-57
2023/05/07 12:10:44;;;;;;;7.35;3.35;;;28.60;99.90;;;;;;5072584;28;20060;-58
2023/05/07 12:13:23;;;;;;;4.78;3.00;;;27.60;99.90;;;;;;5072839;28;20017;-56
2023/05/07 12:15:52;;;;;;;5.38;3.75;;;27.80;99.90;;;;;;5072413;28;20468;-58
2023/05/07 12:18:18;;;;;;;3.78;3.15;;;27.80;99.90;;;;;;5071203;28;20141;-58
2023/05/07 12:20:45;;;;;;;5.20;3.33;;;28.00;99.90;;;;;;5070936;28;20324;-58
2023/05/07 12:23:10;;;;;;;4.82;2.80;;;27.50;99.90;;;;;;5070857;28;20115;-58
2023/05/07 12:25:46;;;;;;;3.88;2.53;;;27.90;99.90;;;;;;5069675;28;20115;-58
2023/05/07 12:28:16;;;;;;;6.45;2.97;;;27.40;99.90;;;;;;5071776;28;20475;-58
2023/05/07 12:30:43;;;;;;;8.25;3.28;;;27.40;99.90;;;;;;5070773;28;20779;-58
2023/05/07 12:33:09;;;;;;;4.32;2.40;;;27.50;99.90;;;;;;5069533;28;20711;-58
2023/05/07 12:35:41;;;;;;;2.28;2.08;;;27.80;99.90;;;;;;5070230;28;20029;-58
2023/05/07 12:38:11;;;;;;;3.45;2.92;;;28.00;99.90;;;;;;5070870;28;20086;-58
2023/05/07 12:40:43;;;;;;;8.07;2.40;;;27.80;99.90;;;;;;5070424;28;20467;-58
2023/05/07 12:43:23;;;;;;;2.85;1.98;;;28.10;99.90;;;;;;5069754;28;20029;-58
2023/05/07 12:45:51;;;;;;;4.20;2.47;;;28.30;99.90;;;;;;5069902;28;20038;-58